CheckWX is a tool to help pilots better visualize weather data.  It is not intended as a substitute for an official pre-flight weather briefing.

01:32:46 UTC

KPRN METAR
Mac Crenshaw Memorial Airport
Greenville, Alabama, USA
Current

37 mins ago

KPRN 200056Z AUTO 00000KT 10SM -RA FEW050 BKN080 BKN090 24/21 A3005 RMK AO2 RAB08 SLP170 P0002 T02440211
Observed
Aug-20 @ 00:56 UTC
Visibility
10 SM
Flight Rules
VFR
Conditions
Light Rain
Cloud Levels
  • Few at 5,000' AGL
  • Broken at 8,000' AGL
  • Broken at 9,000' AGL
Temperature
24°C / 75°F
Dewpoint
21°C / 70°F
Humidity
83%
Altimeter
30.05" Hg
Pressure
1017.62 hPa
Current Rain
0.02"
Previous

2 hours ago

KPRN 192356Z AUTO 36005KT 10SM FEW090 25/22 A3004 RMK AO2 RAE32 TSB03E18 SLP167 P0000 60061 T02500217 10372 20233 53010
Observed
Aug-19 @ 23:56 UTC
Wind
  • 360° at 5 KTS
Visibility
10 SM
Flight Rules
VFR
Cloud Levels
  • Few at 9,000' AGL
Temperature
25°C / 77°F
Dewpoint
22°C / 72°F
Humidity
83%
Altimeter
30.04" Hg
Pressure
1017.32 hPa
Current Rain
0.01"
Previous

2 hours ago

KPRN 192324Z AUTO 25003KT 10SM -RA SCT046 BKN080 BKN110 24/21 A3003 RMK AO2 TSB03E18 P0000 T02440211
Observed
Aug-19 @ 23:24 UTC
Wind
  • 250° at 3 KTS
Visibility
10 SM
Flight Rules
VFR
Conditions
Light Rain
Cloud Levels
  • Scattered at 4,600' AGL
  • Broken at 8,000' AGL
  • Broken at 11,000' AGL
Temperature
24°C / 75°F
Dewpoint
21°C / 70°F
Humidity
83%
Altimeter
30.03" Hg
Pressure
1016.92 hPa
Current Rain
0.01"